sensor_id;sensor_type;location;lat;lon;timestamp;P1;durP1;ratioP1;P2;durP2;ratioP2
9698;SDS011;10089;47.876;8.346;2024-01-10T00:01:18;28.07;;;15.17;;
9698;SDS011;10089;47.876;8.346;2024-01-10T00:03:44;27.03;;;14.13;;
9698;SDS011;10089;47.876;8.346;2024-01-10T00:06:10;29.93;;;14.40;;
9698;SDS011;10089;47.876;8.346;2024-01-10T00:08:36;28.63;;;13.87;;
9698;SDS011;10089;47.876;8.346;2024-01-10T00:11:02;33.17;;;14.13;;
9698;SDS011;10089;47.876;8.346;2024-01-10T00:13:28;28.43;;;13.07;;
9698;SDS011;10089;47.876;8.346;2024-01-10T00:15:56;26.73;;;14.50;;
9698;SDS011;10089;47.876;8.346;2024-01-10T00:18:23;28.27;;;14.37;;
9698;SDS011;10089;47.876;8.346;2024-01-10T00:20:49;28.97;;;13.93;;
9698;SDS011;10089;47.876;8.346;2024-01-10T00:23:18;26.73;;;14.23;;
9698;SDS011;10089;47.876;8.346;2024-01-10T00:25:44;27.57;;;14.07;;
9698;SDS011;10089;47.876;8.346;2024-01-10T00:28:10;27.80;;;14.10;;
9698;SDS011;10089;47.876;8.346;2024-01-10T00:30:37;29.37;;;14.10;;
9698;SDS011;10089;47.876;8.346;2024-01-10T00:33:04;32.23;;;14.37;;
9698;SDS011;10089;47.876;8.346;2024-01-10T00:35:30;31.00;;;13.53;;
9698;SDS011;10089;47.876;8.346;2024-01-10T00:37:56;26.37;;;13.60;;
9698;SDS011;10089;47.876;8.346;2024-01-10T00:40:22;26.27;;;14.83;;
9698;SDS011;10089;47.876;8.346;2024-01-10T00:42:48;28.30;;;13.37;;
9698;SDS011;10089;47.876;8.346;2024-01-10T00:45:13;23.67;;;12.93;;
9698;SDS011;10089;47.876;8.346;2024-01-10T00:47:39;23.87;;;12.60;;
9698;SDS011;10089;47.876;8.346;2024-01-10T00:50:05;29.10;;;11.87;;
9698;SDS011;10089;47.876;8.346;2024-01-10T00:52:31;27.20;;;13.60;;
9698;SDS011;10089;47.876;8.346;2024-01-10T00:54:56;28.33;;;13.60;;
9698;SDS011;10089;47.876;8.346;2024-01-10T00:57:22;28.67;;;12.43;;
9698;SDS011;10089;47.876;8.346;2024-01-10T00:59:48;29.90;;;14.20;;
9698;SDS011;10089;47.876;8.346;2024-01-10T01:02:13;28.67;;;14.23;;
9698;SDS011;10089;47.876;8.346;2024-01-10T01:04:39;27.97;;;14.80;;
9698;SDS011;10089;47.876;8.346;2024-01-10T01:07:04;23.50;;;13.07;;
9698;SDS011;10089;47.876;8.346;2024-01-10T01:09:30;27.03;;;13.57;;
9698;SDS011;10089;47.876;8.346;2024-01-10T01:11:55;30.20;;;14.33;;
9698;SDS011;10089;47.876;8.346;2024-01-10T01:14:21;28.83;;;13.97;;
9698;SDS011;10089;47.876;8.346;2024-01-10T01:16:47;26.30;;;13.73;;
9698;SDS011;10089;47.876;8.346;2024-01-10T01:19:12;27.83;;;14.17;;
9698;SDS011;10089;47.876;8.346;2024-01-10T01:21:38;27.93;;;13.53;;
9698;SDS011;10089;47.876;8.346;2024-01-10T01:24:03;22.50;;;12.77;;
9698;SDS011;10089;47.876;8.346;2024-01-10T01:26:29;26.17;;;14.03;;
9698;SDS011;10089;47.876;8.346;2024-01-10T01:28:55;29.00;;;13.40;;
9698;SDS011;10089;47.876;8.346;2024-01-10T01:31:20;24.33;;;13.07;;
9698;SDS011;10089;47.876;8.346;2024-01-10T01:33:46;29.00;;;13.67;;
9698;SDS011;10089;47.876;8.346;2024-01-10T01:36:12;28.80;;;13.40;;
9698;SDS011;10089;47.876;8.346;2024-01-10T01:38:37;25.77;;;12.93;;
9698;SDS011;10089;47.876;8.346;2024-01-10T01:41:03;28.67;;;13.60;;
9698;SDS011;10089;47.876;8.346;2024-01-10T01:43:30;28.83;;;14.60;;
9698;SDS011;10089;47.876;8.346;2024-01-10T01:45:56;30.63;;;14.47;;
9698;SDS011;10089;47.876;8.346;2024-01-10T01:48:23;27.43;;;14.47;;
9698;SDS011;10089;47.876;8.346;2024-01-10T01:51:08;25.07;;;14.13;;
9698;SDS011;10089;47.876;8.346;2024-01-10T01:53:36;28.73;;;13.50;;
9698;SDS011;10089;47.876;8.346;2024-01-10T01:56:04;26.40;;;13.33;;
9698;SDS011;10089;47.876;8.346;2024-01-10T01:58:31;26.50;;;14.07;;
9698;SDS011;10089;47.876;8.346;2024-01-10T02:00:58;26.33;;;13.97;;
9698;SDS011;10089;47.876;8.346;2024-01-10T02:03:26;26.37;;;13.47;;
9698;SDS011;10089;47.876;8.346;2024-01-10T02:05:51;26.77;;;14.50;;
9698;SDS011;10089;47.876;8.346;2024-01-10T02:08:18;28.83;;;13.33;;
9698;SDS011;10089;47.876;8.346;2024-01-10T02:10:43;30.53;;;13.60;;
9698;SDS011;10089;47.876;8.346;2024-01-10T02:13:09;28.20;;;13.50;;
9698;SDS011;10089;47.876;8.346;2024-01-10T02:15:36;23.37;;;13.37;;
9698;SDS011;10089;47.876;8.346;2024-01-10T02:18:03;28.70;;;13.93;;
9698;SDS011;10089;47.876;8.346;2024-01-10T02:20:30;27.47;;;12.97;;
9698;SDS011;10089;47.876;8.346;2024-01-10T02:22:57;27.30;;;14.07;;
9698;SDS011;10089;47.876;8.346;2024-01-10T02:25:23;22.33;;;13.23;;
9698;SDS011;10089;47.876;8.346;2024-01-10T02:27:48;27.73;;;13.23;;
9698;SDS011;10089;47.876;8.346;2024-01-10T02:30:14;28.27;;;13.33;;
9698;SDS011;10089;47.876;8.346;2024-01-10T02:32:40;24.00;;;13.10;;
9698;SDS011;10089;47.876;8.346;2024-01-10T02:35:06;28.23;;;13.73;;
9698;SDS011;10089;47.876;8.346;2024-01-10T02:37:33;23.37;;;13.13;;
9698;SDS011;10089;47.876;8.346;2024-01-10T02:39:58;28.50;;;14.07;;
9698;SDS011;10089;47.876;8.346;2024-01-10T02:42:24;29.17;;;13.00;;
9698;SDS011;10089;47.876;8.346;2024-01-10T02:44:52;29.60;;;14.40;;
9698;SDS011;10089;47.876;8.346;2024-01-10T02:47:17;26.40;;;13.17;;
9698;SDS011;10089;47.876;8.346;2024-01-10T02:49:43;25.97;;;13.93;;
9698;SDS011;10089;47.876;8.346;2024-01-10T02:52:09;28.13;;;13.33;;
9698;SDS011;10089;47.876;8.346;2024-01-10T02:54:34;25.70;;;13.40;;
9698;SDS011;10089;47.876;8.346;2024-01-10T02:57:01;27.13;;;12.93;;
9698;SDS011;10089;47.876;8.346;2024-01-10T02:59:26;29.97;;;13.07;;
9698;SDS011;10089;47.876;8.346;2024-01-10T03:01:52;28.27;;;13.53;;
9698;SDS011;10089;47.876;8.346;2024-01-10T03:04:18;25.03;;;12.83;;
9698;SDS011;10089;47.876;8.346;2024-01-10T03:06:43;26.63;;;12.93;;
9698;SDS011;10089;47.876;8.346;2024-01-10T03:09:09;31.93;;;13.97;;
9698;SDS011;10089;47.876;8.346;2024-01-10T03:11:34;30.00;;;14.40;;
9698;SDS011;10089;47.876;8.346;2024-01-10T03:14:02;25.47;;;13.73;;
9698;SDS011;10089;47.876;8.346;2024-01-10T03:16:29;32.30;;;13.40;;
9698;SDS011;10089;47.876;8.346;2024-01-10T03:18:55;22.43;;;12.60;;
9698;SDS011;10089;47.876;8.346;2024-01-10T03:21:20;33.20;;;14.67;;
9698;SDS011;10089;47.876;8.346;2024-01-10T03:23:50;27.60;;;13.40;;
9698;SDS011;10089;47.876;8.346;2024-01-10T03:26:16;22.37;;;12.73;;
9698;SDS011;10089;47.876;8.346;2024-01-10T03:28:42;28.67;;;15.50;;
9698;SDS011;10089;47.876;8.346;2024-01-10T03:31:07;27.80;;;14.33;;
9698;SDS011;10089;47.876;8.346;2024-01-10T03:33:36;30.70;;;14.30;;
9698;SDS011;10089;47.876;8.346;2024-01-10T03:36:01;29.80;;;16.03;;
9698;SDS011;10089;47.876;8.346;2024-01-10T03:38:28;32.30;;;14.50;;
9698;SDS011;10089;47.876;8.346;2024-01-10T03:40:54;32.70;;;14.60;;
9698;SDS011;10089;47.876;8.346;2024-01-10T03:43:20;27.77;;;13.47;;
9698;SDS011;10089;47.876;8.346;2024-01-10T03:45:45;24.63;;;12.90;;
9698;SDS011;10089;47.876;8.346;2024-01-10T03:48:11;30.63;;;14.60;;
9698;SDS011;10089;47.876;8.346;2024-01-10T03:50:36;28.70;;;14.77;;
9698;SDS011;10089;47.876;8.346;2024-01-10T03:53:02;32.67;;;16.10;;
9698;SDS011;10089;47.876;8.346;2024-01-10T03:55:29;29.53;;;13.60;;
9698;SDS011;10089;47.876;8.346;2024-01-10T03:57:55;28.13;;;14.70;;
9698;SDS011;10089;47.876;8.346;2024-01-10T04:00:21;26.13;;;13.57;;
9698;SDS011;10089;47.876;8.346;2024-01-10T04:02:48;29.07;;;14.50;;
9698;SDS011;10089;47.876;8.346;2024-01-10T04:05:14;26.33;;;13.77;;
9698;SDS011;10089;47.876;8.346;2024-01-10T04:07:42;26.33;;;13.43;;
9698;SDS011;10089;47.876;8.346;2024-01-10T04:10:11;25.57;;;12.73;;
9698;SDS011;10089;47.876;8.346;2024-01-10T04:12:45;22.70;;;12.80;;
9698;SDS011;10089;47.876;8.346;2024-01-10T04:15:11;23.00;;;13.43;;
9698;SDS011;10089;47.876;8.346;2024-01-10T04:17:38;26.27;;;14.13;;
9698;SDS011;10089;47.876;8.346;2024-01-10T04:20:04;28.07;;;14.13;;
9698;SDS011;10089;47.876;8.346;2024-01-10T04:22:31;26.27;;;14.40;;
9698;SDS011;10089;47.876;8.346;2024-01-10T04:24:57;28.27;;;14.70;;
9698;SDS011;10089;47.876;8.346;2024-01-10T04:27:24;27.23;;;14.50;;
9698;SDS011;10089;47.876;8.346;2024-01-10T04:29:49;27.63;;;14.30;;
9698;SDS011;10089;47.876;8.346;2024-01-10T04:32:15;27.70;;;14.00;;
9698;SDS011;10089;47.876;8.346;2024-01-10T04:34:40;28.13;;;14.10;;
9698;SDS011;10089;47.876;8.346;2024-01-10T04:37:06;27.03;;;14.47;;
9698;SDS011;10089;47.876;8.346;2024-01-10T04:39:32;28.57;;;13.47;;
9698;SDS011;10089;47.876;8.346;2024-01-10T04:41:58;30.10;;;14.90;;
9698;SDS011;10089;47.876;8.346;2024-01-10T04:44:24;28.50;;;13.87;;
9698;SDS011;10089;47.876;8.346;2024-01-10T04:46:50;28.90;;;13.73;;
9698;SDS011;10089;47.876;8.346;2024-01-10T04:49:15;27.63;;;14.33;;
9698;SDS011;10089;47.876;8.346;2024-01-10T04:51:41;27.13;;;14.77;;
9698;SDS011;10089;47.876;8.346;2024-01-10T04:54:07;32.10;;;14.47;;
9698;SDS011;10089;47.876;8.346;2024-01-10T04:56:33;29.20;;;14.80;;
9698;SDS011;10089;47.876;8.346;2024-01-10T04:59:01;26.73;;;14.27;;
9698;SDS011;10089;47.876;8.346;2024-01-10T05:01:27;25.27;;;13.10;;
9698;SDS011;10089;47.876;8.346;2024-01-10T05:03:52;30.30;;;14.23;;
9698;SDS011;10089;47.876;8.346;2024-01-10T05:06:18;26.73;;;13.97;;
9698;SDS011;10089;47.876;8.346;2024-01-10T05:08:44;31.27;;;15.10;;
9698;SDS011;10089;47.876;8.346;2024-01-10T05:11:09;25.50;;;14.60;;
9698;SDS011;10089;47.876;8.346;2024-01-10T05:13:35;35.07;;;14.47;;
9698;SDS011;10089;47.876;8.346;2024-01-10T05:16:01;31.53;;;15.60;;
9698;SDS011;10089;47.876;8.346;2024-01-10T05:18:26;24.93;;;13.07;;
9698;SDS011;10089;47.876;8.346;2024-01-10T05:20:52;30.63;;;15.00;;
9698;SDS011;10089;47.876;8.346;2024-01-10T05:23:17;26.87;;;14.47;;
9698;SDS011;10089;47.876;8.346;2024-01-10T05:25:43;26.30;;;14.53;;
9698;SDS011;10089;47.876;8.346;2024-01-10T05:28:09;29.17;;;14.67;;
9698;SDS011;10089;47.876;8.346;2024-01-10T05:30:40;26.83;;;14.10;;
9698;SDS011;10089;47.876;8.346;2024-01-10T05:33:07;28.60;;;14.33;;
9698;SDS011;10089;47.876;8.346;2024-01-10T05:35:33;28.23;;;14.17;;
9698;SDS011;10089;47.876;8.346;2024-01-10T05:38:00;29.27;;;14.87;;
9698;SDS011;10089;47.876;8.346;2024-01-10T05:40:27;32.23;;;14.60;;
9698;SDS011;10089;47.876;8.346;2024-01-10T05:42:55;36.07;;;16.67;;
9698;SDS011;10089;47.876;8.346;2024-01-10T05:45:21;34.30;;;15.27;;
9698;SDS011;10089;47.876;8.346;2024-01-10T05:47:46;27.87;;;14.00;;
9698;SDS011;10089;47.876;8.346;2024-01-10T05:50:13;29.77;;;15.13;;
9698;SDS011;10089;47.876;8.346;2024-01-10T05:52:39;40.87;;;18.17;;
9698;SDS011;10089;47.876;8.346;2024-01-10T05:55:05;33.83;;;17.10;;
9698;SDS011;10089;47.876;8.346;2024-01-10T05:57:33;34.57;;;16.47;;
9698;SDS011;10089;47.876;8.346;2024-01-10T05:59:59;29.03;;;15.83;;
9698;SDS011;10089;47.876;8.346;2024-01-10T06:02:25;31.23;;;15.47;;
9698;SDS011;10089;47.876;8.346;2024-01-10T06:04:51;30.43;;;15.37;;
9698;SDS011;10089;47.876;8.346;2024-01-10T06:07:17;36.03;;;15.57;;
9698;SDS011;10089;47.876;8.346;2024-01-10T06:09:43;28.40;;;13.63;;
9698;SDS011;10089;47.876;8.346;2024-01-10T06:12:09;27.63;;;14.97;;
9698;SDS011;10089;47.876;8.346;2024-01-10T06:14:34;34.27;;;15.17;;
9698;SDS011;10089;47.876;8.346;2024-01-10T06:17:01;30.10;;;16.53;;
9698;SDS011;10089;47.876;8.346;2024-01-10T06:19:28;29.63;;;14.83;;
9698;SDS011;10089;47.876;8.346;2024-01-10T06:21:57;31.60;;;15.87;;
9698;SDS011;10089;47.876;8.346;2024-01-10T06:24:23;26.13;;;14.33;;
9698;SDS011;10089;47.876;8.346;2024-01-10T06:26:49;30.00;;;16.10;;
9698;SDS011;10089;47.876;8.346;2024-01-10T06:29:15;28.00;;;14.83;;
9698;SDS011;10089;47.876;8.346;2024-01-10T06:31:41;32.17;;;16.00;;
9698;SDS011;10089;47.876;8.346;2024-01-10T06:34:07;31.77;;;14.67;;
9698;SDS011;10089;47.876;8.346;2024-01-10T06:36:33;30.77;;;15.00;;
9698;SDS011;10089;47.876;8.346;2024-01-10T06:38:59;34.00;;;16.47;;
9698;SDS011;10089;47.876;8.346;2024-01-10T06:41:25;36.63;;;18.30;;
9698;SDS011;10089;47.876;8.346;2024-01-10T06:43:51;35.63;;;16.87;;
9698;SDS011;10089;47.876;8.346;2024-01-10T06:46:17;28.10;;;14.03;;
9698;SDS011;10089;47.876;8.346;2024-01-10T06:48:43;29.33;;;15.37;;
9698;SDS011;10089;47.876;8.346;2024-01-10T06:51:16;31.90;;;15.03;;
9698;SDS011;10089;47.876;8.346;2024-01-10T06:53:42;40.87;;;18.83;;
9698;SDS011;10089;47.876;8.346;2024-01-10T06:56:07;31.80;;;16.00;;
9698;SDS011;10089;47.876;8.346;2024-01-10T06:58:34;29.87;;;15.13;;
9698;SDS011;10089;47.876;8.346;2024-01-10T07:01:00;31.33;;;15.50;;
9698;SDS011;10089;47.876;8.346;2024-01-10T07:03:26;30.80;;;14.07;;
9698;SDS011;10089;47.876;8.346;2024-01-10T07:05:52;28.20;;;15.37;;
9698;SDS011;10089;47.876;8.346;2024-01-10T07:08:17;33.63;;;13.83;;
9698;SDS011;10089;47.876;8.346;2024-01-10T07:10:43;29.53;;;15.23;;
9698;SDS011;10089;47.876;8.346;2024-01-10T07:13:09;33.03;;;14.70;;
9698;SDS011;10089;47.876;8.346;2024-01-10T07:15:35;26.00;;;14.17;;
9698;SDS011;10089;47.876;8.346;2024-01-10T07:18:02;31.97;;;15.10;;
9698;SDS011;10089;47.876;8.346;2024-01-10T07:20:28;29.53;;;15.70;;
9698;SDS011;10089;47.876;8.346;2024-01-10T07:22:53;32.30;;;16.70;;
9698;SDS011;10089;47.876;8.346;2024-01-10T07:25:19;34.10;;;15.97;;
9698;SDS011;10089;47.876;8.346;2024-01-10T07:27:47;33.80;;;15.80;;
9698;SDS011;10089;47.876;8.346;2024-01-10T07:30:13;33.67;;;16.43;;
9698;SDS011;10089;47.876;8.346;2024-01-10T07:32:45;30.33;;;15.03;;
9698;SDS011;10089;47.876;8.346;2024-01-10T07:35:11;33.13;;;16.20;;
9698;SDS011;10089;47.876;8.346;2024-01-10T07:37:39;34.20;;;16.47;;
9698;SDS011;10089;47.876;8.346;2024-01-10T07:40:06;31.70;;;16.00;;
9698;SDS011;10089;47.876;8.346;2024-01-10T07:42:42;34.67;;;15.07;;
9698;SDS011;10089;47.876;8.346;2024-01-10T07:45:08;36.30;;;16.20;;
9698;SDS011;10089;47.876;8.346;2024-01-10T07:47:34;44.07;;;18.50;;
9698;SDS011;10089;47.876;8.346;2024-01-10T07:50:11;39.73;;;18.67;;
9698;SDS011;10089;47.876;8.346;2024-01-10T07:52:40;40.97;;;19.03;;
9698;SDS011;10089;47.876;8.346;2024-01-10T07:55:07;46.97;;;20.37;;
9698;SDS011;10089;47.876;8.346;2024-01-10T07:57:33;35.00;;;18.33;;
9698;SDS011;10089;47.876;8.346;2024-01-10T08:00:01;39.00;;;19.27;;
9698;SDS011;10089;47.876;8.346;2024-01-10T08:02:29;43.87;;;18.97;;
9698;SDS011;10089;47.876;8.346;2024-01-10T08:05:02;38.40;;;19.37;;
9698;SDS011;10089;47.876;8.346;2024-01-10T08:07:36;48.30;;;21.40;;
9698;SDS011;10089;47.876;8.346;2024-01-10T08:10:06;45.47;;;22.00;;
9698;SDS011;10089;47.876;8.346;2024-01-10T08:12:34;49.70;;;20.93;;
9698;SDS011;10089;47.876;8.346;2024-01-10T08:15:00;38.40;;;18.10;;
9698;SDS011;10089;47.876;8.346;2024-01-10T08:17:25;36.43;;;18.30;;
9698;SDS011;10089;47.876;8.346;2024-01-10T08:19:51;41.67;;;19.10;;
9698;SDS011;10089;47.876;8.346;2024-01-10T08:22:19;35.43;;;18.00;;
9698;SDS011;10089;47.876;8.346;2024-01-10T08:24:45;49.03;;;21.87;;
9698;SDS011;10089;47.876;8.346;2024-01-10T08:27:11;46.27;;;23.93;;
9698;SDS011;10089;47.876;8.346;2024-01-10T08:29:37;51.30;;;24.40;;
9698;SDS011;10089;47.876;8.346;2024-01-10T08:32:03;71.60;;;29.57;;
9698;SDS011;10089;47.876;8.346;2024-01-10T08:34:29;45.10;;;22.37;;
9698;SDS011;10089;47.876;8.346;2024-01-10T08:36:55;39.70;;;19.47;;
9698;SDS011;10089;47.876;8.346;2024-01-10T08:39:20;34.20;;;18.60;;
9698;SDS011;10089;47.876;8.346;2024-01-10T08:41:47;35.33;;;17.40;;
9698;SDS011;10089;47.876;8.346;2024-01-10T08:44:13;38.77;;;18.53;;
9698;SDS011;10089;47.876;8.346;2024-01-10T08:46:39;39.63;;;18.33;;
9698;SDS011;10089;47.876;8.346;2024-01-10T08:49:04;42.80;;;19.70;;
9698;SDS011;10089;47.876;8.346;2024-01-10T08:51:31;35.10;;;15.30;;
9698;SDS011;10089;47.876;8.346;2024-01-10T08:53:57;34.30;;;17.47;;
9698;SDS011;10089;47.876;8.346;2024-01-10T08:56:22;36.17;;;17.93;;
9698;SDS011;10089;47.876;8.346;2024-01-10T08:58:49;38.40;;;19.60;;
9698;SDS011;10089;47.876;8.346;2024-01-10T09:01:16;33.90;;;18.30;;
9698;SDS011;10089;47.876;8.346;2024-01-10T09:03:42;42.47;;;21.57;;
9698;SDS011;10089;47.876;8.346;2024-01-10T09:06:07;41.73;;;19.47;;
9698;SDS011;10089;47.876;8.346;2024-01-10T09:08:33;43.37;;;19.73;;
9698;SDS011;10089;47.876;8.346;2024-01-10T09:10:59;34.87;;;17.53;;
9698;SDS011;10089;47.876;8.346;2024-01-10T09:13:25;35.93;;;18.13;;
9698;SDS011;10089;47.876;8.346;2024-01-10T09:15:50;33.90;;;17.33;;
9698;SDS011;10089;47.876;8.346;2024-01-10T09:18:16;40.50;;;18.07;;
9698;SDS011;10089;47.876;8.346;2024-01-10T09:20:42;35.03;;;18.87;;
9698;SDS011;10089;47.876;8.346;2024-01-10T09:23:08;37.43;;;19.17;;
9698;SDS011;10089;47.876;8.346;2024-01-10T09:25:34;32.03;;;16.27;;
9698;SDS011;10089;47.876;8.346;2024-01-10T09:28:00;40.20;;;18.17;;
9698;SDS011;10089;47.876;8.346;2024-01-10T09:30:25;31.83;;;15.87;;
9698;SDS011;10089;47.876;8.346;2024-01-10T09:32:51;55.80;;;25.30;;
9698;SDS011;10089;47.876;8.346;2024-01-10T09:35:16;118.60;;;59.10;;
9698;SDS011;10089;47.876;8.346;2024-01-10T09:37:43;50.90;;;23.67;;
9698;SDS011;10089;47.876;8.346;2024-01-10T09:40:10;68.63;;;28.63;;
9698;SDS011;10089;47.876;8.346;2024-01-10T09:42:39;45.13;;;21.23;;
9698;SDS011;10089;47.876;8.346;2024-01-10T09:45:05;32.60;;;18.23;;
9698;SDS011;10089;47.876;8.346;2024-01-10T09:47:33;29.73;;;16.27;;
9698;SDS011;10089;47.876;8.346;2024-01-10T09:50:01;27.03;;;14.33;;
9698;SDS011;10089;47.876;8.346;2024-01-10T09:52:28;28.57;;;15.77;;
9698;SDS011;10089;47.876;8.346;2024-01-10T09:54:58;26.70;;;15.60;;
9698;SDS011;10089;47.876;8.346;2024-01-10T09:57:26;28.77;;;15.43;;
9698;SDS011;10089;47.876;8.346;2024-01-10T09:59:52;25.60;;;15.93;;
9698;SDS011;10089;47.876;8.346;2024-01-10T10:02:19;27.37;;;14.70;;
9698;SDS011;10089;47.876;8.346;2024-01-10T10:04:53;26.90;;;14.90;;
9698;SDS011;10089;47.876;8.346;2024-01-10T10:07:24;27.77;;;14.13;;
9698;SDS011;10089;47.876;8.346;2024-01-10T10:09:50;25.57;;;13.83;;
9698;SDS011;10089;47.876;8.346;2024-01-10T10:12:18;32.40;;;15.20;;
9698;SDS011;10089;47.876;8.346;2024-01-10T10:14:44;24.90;;;15.00;;
9698;SDS011;10089;47.876;8.346;2024-01-10T10:17:13;27.37;;;13.93;;
9698;SDS011;10089;47.876;8.346;2024-01-10T10:19:40;30.97;;;13.90;;
9698;SDS011;10089;47.876;8.346;2024-01-10T10:22:09;25.57;;;13.67;;
9698;SDS011;10089;47.876;8.346;2024-01-10T10:24:37;25.70;;;13.73;;
9698;SDS011;10089;47.876;8.346;2024-01-10T10:27:11;26.13;;;13.30;;
9698;SDS011;10089;47.876;8.346;2024-01-10T10:29:38;32.73;;;15.57;;
9698;SDS011;10089;47.876;8.346;2024-01-10T10:32:04;27.17;;;15.00;;
9698;SDS011;10089;47.876;8.346;2024-01-10T10:34:31;27.67;;;14.80;;
9698;SDS011;10089;47.876;8.346;2024-01-10T10:37:00;25.23;;;14.17;;
9698;SDS011;10089;47.876;8.346;2024-01-10T10:39:27;25.30;;;13.27;;
9698;SDS011;10089;47.876;8.346;2024-01-10T10:41:53;27.40;;;13.83;;
9698;SDS011;10089;47.876;8.346;2024-01-10T10:44:19;24.70;;;14.43;;
9698;SDS011;10089;47.876;8.346;2024-01-10T10:46:58;25.17;;;13.37;;
9698;SDS011;10089;47.876;8.346;2024-01-10T10:49:31;22.20;;;11.80;;
9698;SDS011;10089;47.876;8.346;2024-01-10T10:51:59;20.30;;;10.30;;
9698;SDS011;10089;47.876;8.346;2024-01-10T10:54:28;23.63;;;11.10;;
9698;SDS011;10089;47.876;8.346;2024-01-10T10:56:57;26.33;;;16.07;;
9698;SDS011;10089;47.876;8.346;2024-01-10T10:59:27;21.63;;;13.10;;
9698;SDS011;10089;47.876;8.346;2024-01-10T11:01:57;20.10;;;11.57;;
9698;SDS011;10089;47.876;8.346;2024-01-10T11:04:23;20.87;;;11.20;;
9698;SDS011;10089;47.876;8.346;2024-01-10T11:06:50;25.77;;;12.93;;
9698;SDS011;10089;47.876;8.346;2024-01-10T11:09:16;20.60;;;11.60;;
9698;SDS011;10089;47.876;8.346;2024-01-10T11:14:34;19.40;;;11.17;;
9698;SDS011;10089;47.876;8.346;2024-01-10T11:20:13;17.90;;;9.93;;
9698;SDS011;10089;47.876;8.346;2024-01-10T11:25:23;15.43;;;8.93;;
9698;SDS011;10089;47.876;8.346;2024-01-10T11:27:54;17.60;;;9.17;;
9698;SDS011;10089;47.876;8.346;2024-01-10T11:36:09;13.43;;;7.97;;
9698;SDS011;10089;47.876;8.346;2024-01-10T11:41:15;16.25;;;8.57;;
9698;SDS011;10089;47.876;8.346;2024-01-10T11:46:43;15.35;;;8.30;;
9698;SDS011;10089;47.876;8.346;2024-01-10T11:49:13;14.60;;;6.82;;
9698;SDS011;10089;47.876;8.346;2024-01-10T11:51:43;11.77;;;7.00;;
9698;SDS011;10089;47.876;8.346;2024-01-10T11:57:18;16.00;;;7.75;;
9698;SDS011;10089;47.876;8.346;2024-01-10T11:59:46;15.13;;;7.78;;
9698;SDS011;10089;47.876;8.346;2024-01-10T12:02:15;11.82;;;6.72;;
9698;SDS011;10089;47.876;8.346;2024-01-10T12:04:41;13.95;;;7.70;;
9698;SDS011;10089;47.876;8.346;2024-01-10T12:07:10;12.50;;;6.30;;
9698;SDS011;10089;47.876;8.346;2024-01-10T12:09:37;10.13;;;6.03;;
9698;SDS011;10089;47.876;8.346;2024-01-10T12:12:04;11.57;;;6.22;;
9698;SDS011;10089;47.876;8.346;2024-01-10T12:14:31;11.38;;;6.03;;
9698;SDS011;10089;47.876;8.346;2024-01-10T12:16:56;8.15;;;5.50;;
9698;SDS011;10089;47.876;8.346;2024-01-10T12:19:24;9.57;;;5.53;;
9698;SDS011;10089;47.876;8.346;2024-01-10T12:21:49;10.65;;;6.20;;
9698;SDS011;10089;47.876;8.346;2024-01-10T12:24:15;10.15;;;6.00;;
9698;SDS011;10089;47.876;8.346;2024-01-10T12:26:45;12.10;;;6.53;;
9698;SDS011;10089;47.876;8.346;2024-01-10T12:29:16;12.07;;;6.78;;
9698;SDS011;10089;47.876;8.346;2024-01-10T12:31:43;11.30;;;6.22;;
9698;SDS011;10089;47.876;8.346;2024-01-10T12:34:10;11.98;;;7.20;;
9698;SDS011;10089;47.876;8.346;2024-01-10T12:36:36;11.63;;;7.20;;
9698;SDS011;10089;47.876;8.346;2024-01-10T12:39:03;14.05;;;7.43;;
9698;SDS011;10089;47.876;8.346;2024-01-10T12:41:43;11.90;;;7.47;;
9698;SDS011;10089;47.876;8.346;2024-01-10T12:44:10;12.98;;;7.05;;
9698;SDS011;10089;47.876;8.346;2024-01-10T12:46:48;11.80;;;6.95;;
9698;SDS011;10089;47.876;8.346;2024-01-10T12:49:16;10.80;;;6.85;;
9698;SDS011;10089;47.876;8.346;2024-01-10T12:51:42;9.27;;;6.38;;
9698;SDS011;10089;47.876;8.346;2024-01-10T12:54:08;12.50;;;7.00;;
9698;SDS011;10089;47.876;8.346;2024-01-10T12:56:34;15.88;;;8.45;;
9698;SDS011;10089;47.876;8.346;2024-01-10T12:59:00;9.82;;;6.40;;
9698;SDS011;10089;47.876;8.346;2024-01-10T13:01:31;11.83;;;6.73;;
9698;SDS011;10089;47.876;8.346;2024-01-10T13:03:56;18.42;;;9.05;;
9698;SDS011;10089;47.876;8.346;2024-01-10T13:06:23;14.13;;;8.02;;
9698;SDS011;10089;47.876;8.346;2024-01-10T13:08:49;11.23;;;7.05;;
9698;SDS011;10089;47.876;8.346;2024-01-10T13:11:15;9.57;;;6.15;;
9698;SDS011;10089;47.876;8.346;2024-01-10T13:13:41;11.43;;;6.68;;
9698;SDS011;10089;47.876;8.346;2024-01-10T13:16:08;11.70;;;6.30;;
9698;SDS011;10089;47.876;8.346;2024-01-10T13:18:36;11.32;;;6.82;;
9698;SDS011;10089;47.876;8.346;2024-01-10T13:21:02;15.13;;;8.82;;
9698;SDS011;10089;47.876;8.346;2024-01-10T13:23:28;11.23;;;7.03;;
9698;SDS011;10089;47.876;8.346;2024-01-10T13:25:54;9.82;;;6.38;;
9698;SDS011;10089;47.876;8.346;2024-01-10T13:28:19;13.18;;;7.63;;
9698;SDS011;10089;47.876;8.346;2024-01-10T13:30:48;23.63;;;13.43;;
9698;SDS011;10089;47.876;8.346;2024-01-10T13:33:15;14.57;;;6.95;;
9698;SDS011;10089;47.876;8.346;2024-01-10T13:35:49;6.87;;;4.57;;
9698;SDS011;10089;47.876;8.346;2024-01-10T13:38:17;7.93;;;5.13;;
9698;SDS011;10089;47.876;8.346;2024-01-10T13:40:43;8.70;;;4.50;;
9698;SDS011;10089;47.876;8.346;2024-01-10T13:43:08;14.13;;;6.27;;
9698;SDS011;10089;47.876;8.346;2024-01-10T13:45:34;9.43;;;5.83;;
9698;SDS011;10089;47.876;8.346;2024-01-10T13:47:59;12.43;;;5.83;;
9698;SDS011;10089;47.876;8.346;2024-01-10T13:50:25;13.10;;;7.50;;
9698;SDS011;10089;47.876;8.346;2024-01-10T13:52:52;9.10;;;5.27;;
9698;SDS011;10089;47.876;8.346;2024-01-10T13:55:18;11.05;;;5.57;;
9698;SDS011;10089;47.876;8.346;2024-01-10T13:57:44;12.18;;;5.85;;
9698;SDS011;10089;47.876;8.346;2024-01-10T14:00:10;9.32;;;5.28;;
9698;SDS011;10089;47.876;8.346;2024-01-10T14:02:39;8.50;;;5.00;;
9698;SDS011;10089;47.876;8.346;2024-01-10T14:05:08;8.07;;;5.40;;
9698;SDS011;10089;47.876;8.346;2024-01-10T14:07:35;6.90;;;4.80;;
9698;SDS011;10089;47.876;8.346;2024-01-10T14:10:00;6.63;;;4.77;;
9698;SDS011;10089;47.876;8.346;2024-01-10T14:12:27;17.65;;;9.85;;
9698;SDS011;10089;47.876;8.346;2024-01-10T14:14:54;15.67;;;8.87;;
9698;SDS011;10089;47.876;8.346;2024-01-10T14:17:20;20.73;;;12.10;;
9698;SDS011;10089;47.876;8.346;2024-01-10T14:19:47;12.77;;;8.67;;
9698;SDS011;10089;47.876;8.346;2024-01-10T14:22:14;8.03;;;5.17;;
9698;SDS011;10089;47.876;8.346;2024-01-10T14:24:42;6.30;;;4.27;;
9698;SDS011;10089;47.876;8.346;2024-01-10T14:27:08;5.38;;;4.15;;
9698;SDS011;10089;47.876;8.346;2024-01-10T14:29:34;5.53;;;3.80;;
9698;SDS011;10089;47.876;8.346;2024-01-10T14:31:59;6.90;;;4.20;;
9698;SDS011;10089;47.876;8.346;2024-01-10T14:34:25;4.93;;;3.57;;
9698;SDS011;10089;47.876;8.346;2024-01-10T14:36:50;5.55;;;3.47;;
9698;SDS011;10089;47.876;8.346;2024-01-10T14:39:16;9.20;;;6.18;;
9698;SDS011;10089;47.876;8.346;2024-01-10T14:41:43;9.70;;;6.77;;
9698;SDS011;10089;47.876;8.346;2024-01-10T14:44:09;7.60;;;5.32;;
9698;SDS011;10089;47.876;8.346;2024-01-10T14:46:35;8.57;;;5.45;;
9698;SDS011;10089;47.876;8.346;2024-01-10T14:49:00;7.80;;;5.23;;
9698;SDS011;10089;47.876;8.346;2024-01-10T14:51:28;6.07;;;4.40;;
9698;SDS011;10089;47.876;8.346;2024-01-10T14:53:55;8.43;;;4.13;;
9698;SDS011;10089;47.876;8.346;2024-01-10T14:56:20;6.30;;;4.43;;
9698;SDS011;10089;47.876;8.346;2024-01-10T14:58:48;6.63;;;3.80;;